Time;durP1;ratioP1;P1;durP2;ratioP2;P2;SDS_P1;SDS_P2;PMS_P1;PMS_P2;Temp;Humidity;BMP_temperature;BMP_pressure;BME280_temperature;BME280_humidity;BME280_pressure;Samples;Min_cycle;Max_cycle;Signal;HPM_P1;HPM_P2
2022/11/23 00:00:30;;;;;;;;;7.33;5.00;;;;;9.10;69.86;99563.53;5118388;27;45476;-68
2022/11/23 00:02:57;;;;;;;;;13.00;7.67;;;;;9.10;69.50;99560.88;5117878;27;45460;-68
2022/11/23 00:05:23;;;;;;;;;9.33;5.33;;;;;9.08;70.09;99564.69;5117889;27;45426;-68
2022/11/23 00:07:48;;;;;;;;;3.67;3.33;;;;;9.01;69.88;99559.22;5118083;27;45403;-68
2022/11/23 00:10:14;;;;;;;;;6.67;5.00;;;;;8.99;70.11;99552.41;5118276;27;45396;-69
2022/11/23 00:12:39;;;;;;;;;13.33;6.33;;;;;8.96;70.38;99552.75;5099033;27;47438;-69
2022/11/23 00:15:06;;;;;;;;;5.33;5.33;;;;;8.96;70.69;99542.13;5118041;27;45182;-68
2022/11/23 00:17:32;;;;;;;;;9.67;6.33;;;;;8.83;70.49;99527.56;5118153;27;45350;-70
2022/11/23 00:19:57;;;;;;;;;11.00;7.00;;;;;8.82;70.75;99523.25;5118257;27;45414;-66
2022/11/23 00:22:23;;;;;;;;;7.33;5.67;;;;;7.87;70.78;99370.00;5118107;27;45530;-68
2022/11/23 00:24:48;;;;;;;;;8.00;6.00;;;;;8.66;71.19;99501.19;5118238;27;45200;-67
2022/11/23 00:27:14;;;;;;;;;6.00;4.00;;;;;8.65;70.96;99516.25;5099453;27;45323;-68
2022/11/23 00:29:39;;;;;;;;;7.33;5.00;;;;;8.43;71.54;99477.09;5118129;27;45273;-67
2022/11/23 00:32:04;;;;;;;;;7.00;5.00;;;;;6.45;71.23;99161.88;5099135;27;48240;-69
2022/11/23 00:34:30;;;;;;;;;9.67;5.33;;;;;8.63;71.23;99528.81;5099130;27;45443;-70
2022/11/23 00:36:55;;;;;;;;;6.33;5.00;;;;;8.30;71.52;99471.41;5119872;27;45279;-67
2022/11/23 00:39:20;;;;;;;;;5.00;5.00;;;;;8.69;71.67;99533.47;5121491;27;45267;-67
2022/11/23 00:41:46;;;;;;;;;9.33;6.67;;;;;8.56;71.83;99522.50;5102677;27;47637;-67
2022/11/23 00:44:11;;;;;;;;;11.00;5.00;;;;;8.65;71.97;99536.59;5102399;27;46013;-66
2022/11/23 00:46:36;;;;;;;;;5.00;5.00;;;;;7.67;71.77;99381.84;5120977;27;45307;-67
2022/11/23 00:49:03;;;;;;;;;4.00;4.00;;;;;8.68;71.92;99526.50;5121408;27;45268;-68
2022/11/23 00:51:31;;;;;;;;;5.67;5.33;;;;;7.65;71.87;99352.06;5102134;27;46676;-67
2022/11/23 00:53:58;;;;;;;;;5.00;4.00;;;;;8.65;71.72;99513.59;5120623;27;45445;-68
2022/11/23 00:56:24;;;;;;;;;9.33;7.00;;;;;8.66;71.63;99514.41;5120687;27;45425;-66
2022/11/23 00:58:52;;;;;;;;;7.67;6.67;;;;;8.62;72.07;99521.88;5102520;27;45380;-68
2022/11/23 01:01:20;;;;;;;;;10.00;4.67;;;;;8.58;71.71;99512.56;5120358;27;45575;-67
2022/11/23 01:03:57;;;;;;;;;7.00;5.33;;;;;8.40;71.82;99472.09;5101905;27;46394;-66
2022/11/23 01:06:28;;;;;;;;;7.00;4.33;;;;;8.68;72.03;99521.22;5120568;27;45334;-67
2022/11/23 01:08:56;;;;;;;;;6.00;3.00;;;;;8.59;71.80;99500.13;5120619;27;45362;-67
2022/11/23 01:11:23;;;;;;;;;8.00;6.67;;;;;8.68;72.13;99520.38;5098209;27;46396;-67
2022/11/23 01:13:49;;;;;;;;;13.00;5.00;;;;;8.67;71.94;99518.72;5097710;27;45394;-67
2022/11/23 01:16:23;;;;;;;;;6.33;6.33;;;;;8.63;72.34;99528.00;5095912;27;45366;-66
2022/11/23 01:18:57;;;;;;;;;7.00;5.67;;;;;8.09;71.93;99422.34;5096909;27;45373;-66
2022/11/23 01:21:23;;;;;;;;;8.00;5.00;;;;;8.69;71.96;99514.91;5096840;27;45719;-66
2022/11/23 01:23:49;;;;;;;;;8.67;6.00;;;;;7.94;71.84;99382.44;5097929;27;45413;-66
2022/11/23 01:26:15;;;;;;;;;7.00;4.33;;;;;8.17;71.84;99432.13;5098611;27;45559;-66
2022/11/23 01:28:40;;;;;;;;;5.33;4.00;;;;;8.60;71.98;99502.63;5099254;27;45540;-66
2022/11/23 01:31:14;;;;;;;;;6.00;5.00;;;;;8.29;71.67;99440.63;5099322;27;45817;-66
2022/11/23 01:33:40;;;;;;;;;5.67;5.67;;;;;8.19;72.14;99415.09;5098183;27;45337;-67
2022/11/23 01:36:19;;;;;;;;;9.33;6.00;;;;;8.07;72.06;99410.28;5099463;27;45492;-67
2022/11/23 01:38:46;;;;;;;;;4.00;4.00;;;;;8.61;72.08;99493.72;5100230;27;45570;-67
2022/11/23 01:41:15;;;;;;;;;8.33;5.00;;;;;8.32;72.20;99440.28;5099180;27;45823;-65
2022/11/23 01:43:40;;;;;;;;;9.67;4.33;;;;;8.62;72.52;99490.06;5099241;27;45535;-66
2022/11/23 01:46:05;;;;;;;;;6.33;5.33;;;;;8.55;72.55;99491.69;5098030;27;45540;-66
2022/11/23 01:48:33;;;;;;;;;8.33;4.33;;;;;8.53;72.57;99478.63;5098421;27;45384;-65
2022/11/23 01:51:03;;;;;;;;;6.00;5.67;;;;;8.47;72.72;99466.03;5097437;27;47557;-67
2022/11/23 01:53:30;;;;;;;;;7.33;6.67;;;;;8.04;72.76;99395.53;5097702;27;45347;-66
2022/11/23 01:56:02;;;;;;;;;8.33;5.33;;;;;7.68;72.81;99325.28;5099308;27;45455;-67
2022/11/23 01:58:32;;;;;;;;;8.67;5.33;;;;;8.48;72.87;99467.69;5099423;27;45441;-66
2022/11/23 02:00:58;;;;;;;;;8.33;5.67;;;;;8.44;73.51;99465.53;5098803;27;45456;-67
2022/11/23 02:03:23;;;;;;;;;6.67;5.67;;;;;8.05;73.19;99401.66;5099183;27;45469;-66
2022/11/23 02:05:58;;;;;;;;;6.67;5.33;;;;;8.45;73.65;99483.06;5099061;27;45483;-66
2022/11/23 02:08:24;;;;;;;;;10.33;5.33;;;;;8.12;73.91;99429.97;5088185;27;45480;-67
2022/11/23 02:10:51;;;;;;;;;10.33;6.67;;;;;8.38;74.21;99466.97;5094368;27;46559;-66
2022/11/23 02:13:17;;;;;;;;;5.33;4.00;;;;;8.43;74.00;99462.03;5097822;27;45308;-67
2022/11/23 02:15:42;;;;;;;;;9.33;5.33;;;;;8.36;73.94;99446.94;5080456;27;45514;-66
2022/11/23 02:18:14;;;;;;;;;7.00;6.00;;;;;8.51;73.83;99456.75;5099098;27;45241;-66
2022/11/23 02:20:42;;;;;;;;;11.33;7.00;;;;;8.14;73.92;99405.97;5098751;27;46539;-66
2022/11/23 02:23:19;;;;;;;;;10.67;6.00;;;;;8.44;73.82;99449.63;5098595;27;45467;-67
2022/11/23 02:25:44;;;;;;;;;9.00;6.33;;;;;8.52;74.04;99462.88;5098876;27;45380;-67
2022/11/23 02:28:20;;;;;;;;;8.67;7.00;;;;;8.53;74.09;99453.94;5099287;27;45208;-67
2022/11/23 02:30:49;;;;;;;;;7.33;5.00;;;;;8.34;74.32;99427.75;5098513;27;45733;-66
2022/11/23 02:33:15;;;;;;;;;5.00;5.00;;;;;8.19;74.12;99408.97;5098309;27;46521;-67
2022/11/23 02:35:52;;;;;;;;;6.33;6.00;;;;;7.75;74.12;99332.41;5098647;27;45236;-68
2022/11/23 02:38:18;;;;;;;;;9.33;6.00;;;;;8.20;74.39;99405.31;5098745;27;45259;-66
2022/11/23 02:40:44;;;;;;;;;5.00;5.00;;;;;8.53;74.27;99443.34;5098267;27;46164;-66
2022/11/23 02:43:10;;;;;;;;;8.00;4.33;;;;;8.57;74.07;99443.84;5096795;27;45594;-67
2022/11/23 02:45:41;;;;;;;;;7.67;4.00;;;;;8.59;73.95;99437.38;5098597;27;45381;-67
2022/11/23 02:48:10;;;;;;;;;11.00;6.00;;;;;8.57;74.21;99428.78;5098891;27;45266;-65
2022/11/23 02:50:35;;;;;;;;;6.33;5.00;;;;;8.59;74.17;99442.69;5079652;27;48190;-66
2022/11/23 02:53:01;;;;;;;;;6.00;6.00;;;;;8.23;74.36;99371.44;5098154;27;45360;-66
2022/11/23 02:55:26;;;;;;;;;9.33;6.00;;;;;8.51;74.44;99414.38;5062926;27;45548;-67
2022/11/23 02:57:51;;;;;;;;;11.00;7.33;;;;;8.61;73.96;99432.78;5098455;27;45409;-68
2022/11/23 03:00:17;;;;;;;;;5.33;5.33;;;;;8.60;74.32;99417.84;5097331;27;46384;-66
2022/11/23 03:02:43;;;;;;;;;7.67;7.67;;;;;8.62;74.64;99415.91;5098192;27;45524;-67
2022/11/23 03:05:08;;;;;;;;;11.00;6.67;;;;;8.21;74.33;99357.53;5098155;27;45277;-67
2022/11/23 03:07:34;;;;;;;;;3.67;3.00;;;;;8.26;74.53;99365.00;5098204;27;45335;-67
2022/11/23 03:10:00;;;;;;;;;13.00;9.00;;;;;8.63;74.09;99417.56;5097855;27;46328;-67
2022/11/23 03:12:25;;;;;;;;;9.33;5.00;;;;;8.52;74.51;99397.50;5097877;27;45474;-66
2022/11/23 03:14:50;;;;;;;;;9.67;7.67;;;;;8.62;74.27;99399.19;5097848;27;45395;-66
2022/11/23 03:17:16;;;;;;;;;9.33;6.33;;;;;8.65;74.16;99399.66;5098243;27;45236;-67
2022/11/23 03:19:41;;;;;;;;;8.33;6.67;;;;;8.39;74.46;99353.94;5097861;27;46237;-68
2022/11/23 03:22:07;;;;;;;;;6.00;5.00;;;;;8.57;74.00;99367.84;5098044;27;45552;-67
2022/11/23 03:24:33;;;;;;;;;10.33;6.00;;;;;8.33;73.85;99320.13;5098127;27;45265;-65
2022/11/23 03:26:58;;;;;;;;;8.33;8.00;;;;;8.43;73.89;99334.09;5098359;27;45465;-67
2022/11/23 03:29:25;;;;;;;;;10.00;8.33;;;;;8.74;73.92;99396.00;5097658;27;46036;-67
2022/11/23 03:31:53;;;;;;;;;7.67;6.33;;;;;8.73;74.18;99390.88;5097587;27;45489;-66
2022/11/23 03:34:19;;;;;;;;;8.00;6.00;;;;;8.69;74.27;99378.97;5097537;27;45491;-68
2022/11/23 03:36:44;;;;;;;;;10.00;7.33;;;;;7.95;74.23;99258.88;5097867;27;45501;-66
2022/11/23 03:39:10;;;;;;;;;7.67;6.33;;;;;8.63;73.88;99361.09;5097534;27;45319;-66
2022/11/23 03:41:35;;;;;;;;;12.33;6.00;;;;;8.63;73.74;99353.97;5097566;27;45528;-66
2022/11/23 03:44:01;;;;;;;;;4.00;3.00;;;;;8.89;73.51;99366.22;5079367;27;45796;-66
2022/11/23 03:46:26;;;;;;;;;6.00;6.00;;;;;7.47;74.03;99133.50;5097945;27;45477;-66
2022/11/23 03:48:51;;;;;;;;;8.33;8.33;;;;;8.06;73.83;99239.22;5097436;27;45561;-67
2022/11/23 03:51:17;;;;;;;;;7.00;6.00;;;;;8.79;74.58;99353.94;5097537;27;45328;-66
2022/11/23 03:53:42;;;;;;;;;5.00;4.00;;;;;7.22;74.15;99131.81;5079190;27;45609;-66
2022/11/23 03:56:08;;;;;;;;;5.67;5.00;;;;;7.88;74.56;99220.84;5097852;27;45600;-66
2022/11/23 03:58:33;;;;;;;;;10.33;8.33;;;;;8.84;74.88;99379.97;5098792;27;46509;-66
2022/11/23 04:00:59;;;;;;;;;9.33;8.33;;;;;8.69;74.58;99353.31;5079386;27;45939;-66
2022/11/23 04:03:24;;;;;;;;;6.00;5.00;;;;;8.45;74.55;99308.28;5079109;27;45230;-67
2022/11/23 04:05:49;;;;;;;;;15.00;10.00;;;;;8.72;75.03;99360.91;5097691;27;45250;-67
2022/11/23 04:08:15;;;;;;;;;7.00;7.00;;;;;8.57;75.10;99338.72;5097197;27;46556;-66
2022/11/23 04:10:40;;;;;;;;;12.00;7.00;;;;;8.73;74.98;99359.91;5097379;27;45265;-68
2022/11/23 04:13:05;;;;;;;;;9.33;6.33;;;;;8.49;74.99;99320.19;5101028;27;45416;-68
2022/11/23 04:15:31;;;;;;;;;7.00;6.00;;;;;8.73;75.09;99357.25;5101129;27;45358;-66
2022/11/23 04:17:56;;;;;;;;;8.33;7.00;;;;;8.63;75.35;99340.72;5082308;27;47271;-67
2022/11/23 04:20:21;;;;;;;;;6.33;6.33;;;;;8.42;75.45;99298.00;5100705;27;45304;-68
2022/11/23 04:22:47;;;;;;;;;6.33;6.00;;;;;8.72;75.62;99347.66;5100891;27;45313;-67
2022/11/23 04:25:12;;;;;;;;;10.00;8.00;;;;;8.70;75.74;99343.53;5100786;27;45326;-67
2022/11/23 04:27:37;;;;;;;;;10.67;7.00;;;;;8.57;75.77;99325.47;5100799;27;45339;-66
2022/11/23 04:30:03;;;;;;;;;13.33;7.00;;;;;8.59;75.64;99315.53;5100713;27;45481;-67
2022/11/23 04:32:29;;;;;;;;;8.33;8.33;;;;;8.00;75.82;99213.38;5100823;27;45322;-66
2022/11/23 04:34:54;;;;;;;;;6.33;5.00;;;;;8.69;76.33;99363.91;5082104;27;45363;-66
2022/11/23 04:37:20;;;;;;;;;8.33;6.00;;;;;8.33;76.96;99280.41;5100369;27;46280;-65
2022/11/23 04:39:45;;;;;;;;;12.00;7.67;;;;;8.38;76.77;99286.91;5100297;27;45532;-66
2022/11/23 04:42:11;;;;;;;;;10.00;6.67;;;;;8.71;77.01;99335.41;5082449;27;45535;-66
2022/11/23 04:44:36;;;;;;;;;12.00;7.67;;;;;8.53;76.90;99292.38;5100764;27;45297;-67
2022/11/23 04:47:01;;;;;;;;;6.00;6.00;;;;;8.71;77.39;99346.00;5100123;27;46013;-66
2022/11/23 04:49:27;;;;;;;;;11.00;8.33;;;;;7.45;76.78;99124.91;5100099;27;45502;-67
2022/11/23 04:51:52;;;;;;;;;9.33;6.33;;;;;8.56;77.06;99301.78;5100258;27;45351;-66
2022/11/23 04:54:18;;;;;;;;;15.33;11.67;;;;;8.66;76.67;99305.13;5100223;27;45392;-65
2022/11/23 04:56:43;;;;;;;;;6.00;5.33;;;;;8.72;77.42;99336.25;5099943;27;46539;-67
2022/11/23 04:59:08;;;;;;;;;11.67;7.00;;;;;8.63;77.52;99316.88;5099698;27;45217;-66
2022/11/23 05:01:34;;;;;;;;;13.33;8.33;;;;;8.64;77.40;99323.00;5099812;27;45215;-65
2022/11/23 05:03:59;;;;;;;;;5.67;5.00;;;;;8.65;77.93;99314.06;5100296;27;45339;-66
2022/11/23 05:06:25;;;;;;;;;5.00;5.00;;;;;8.60;78.30;99316.34;5099544;27;46517;-66
2022/11/23 05:08:50;;;;;;;;;6.00;5.00;;;;;8.59;78.56;99307.59;5099910;27;45397;-66
2022/11/23 05:11:15;;;;;;;;;8.33;7.67;;;;;8.49;78.17;99299.81;5099467;27;46117;-67
2022/11/23 05:13:41;;;;;;;;;6.00;6.00;;;;;8.68;78.32;99325.16;5099740;27;45407;-67
2022/11/23 05:16:06;;;;;;;;;8.00;5.00;;;;;8.72;78.39;99315.03;5099794;27;45377;-68
2022/11/23 05:18:32;;;;;;;;;4.33;4.33;;;;;8.61;78.07;99280.94;5099710;27;45454;-66
2022/11/23 05:20:57;;;;;;;;;5.67;5.00;;;;;8.42;78.21;99250.34;5099817;27;45371;-66
2022/11/23 05:23:22;;;;;;;;;6.00;5.00;;;;;8.86;77.87;99310.91;5099082;27;45603;-66
2022/11/23 05:25:48;;;;;;;;;7.33;7.00;;;;;8.74;78.04;99308.56;5099880;27;45837;-67
2022/11/23 05:28:16;;;;;;;;;8.33;6.00;;;;;7.90;77.95;99163.28;5099640;27;45334;-67
2022/11/23 05:30:41;;;;;;;;;6.33;5.00;;;;;8.87;77.95;99317.84;5099239;27;45339;-67
2022/11/23 05:33:07;;;;;;;;;7.00;7.00;;;;;8.86;77.83;99324.16;5099480;27;45494;-67
2022/11/23 05:35:32;;;;;;;;;9.00;6.33;;;;;8.89;77.88;99321.16;5099324;27;46415;-67
2022/11/23 05:37:57;;;;;;;;;7.00;6.00;;;;;8.94;77.63;99318.81;5099156;27;45366;-67
2022/11/23 05:40:23;;;;;;;;;12.33;8.33;;;;;9.00;77.36;99326.09;5099453;27;45176;-66
2022/11/23 05:42:53;;;;;;;;;10.33;6.67;;;;;8.98;77.64;99322.78;5099432;27;45446;-67
2022/11/23 05:45:19;;;;;;;;;5.00;3.00;;;;;9.03;77.03;99304.56;5099152;27;45448;-67
2022/11/23 05:47:49;;;;;;;;;11.33;7.00;;;;;9.02;77.06;99326.78;5098947;27;45508;-67
2022/11/23 05:50:15;;;;;;;;;6.67;6.00;;;;;8.91;77.67;99297.97;5099187;27;45418;-66
2022/11/23 05:52:40;;;;;;;;;11.67;7.67;;;;;8.16;76.94;99187.75;5080762;27;45343;-67
2022/11/23 05:55:05;;;;;;;;;12.33;10.33;;;;;9.02;77.20;99300.28;5098813;27;46395;-67
2022/11/23 05:57:31;;;;;;;;;12.00;10.33;;;;;6.26;76.60;98878.75;5099038;27;45429;-66
2022/11/23 05:59:56;;;;;;;;;13.67;9.00;;;;;9.09;77.05;99302.06;5080694;27;45503;-70
2022/11/23 06:02:21;;;;;;;;;12.67;9.33;;;;;9.12;77.07;99303.53;5099110;27;45680;-66
2022/11/23 06:04:47;;;;;;;;;10.67;7.00;;;;;8.61;77.47;99238.53;5098771;27;45395;-66
2022/11/23 06:07:12;;;;;;;;;7.33;5.67;;;;;8.83;77.55;99270.50;5098904;27;45313;-65
2022/11/23 06:09:37;;;;;;;;;14.33;13.00;;;;;9.07;77.21;99297.94;5098975;27;45307;-66
2022/11/23 06:12:03;;;;;;;;;9.67;9.33;;;;;8.33;77.39;99177.16;5098527;27;45790;-65
2022/11/23 06:14:28;;;;;;;;;11.67;10.67;;;;;8.77;77.18;99249.94;5098637;27;46355;-68
2022/11/23 06:16:54;;;;;;;;;8.00;8.00;;;;;9.07;77.52;99313.84;5098631;27;45312;-66
2022/11/23 06:19:19;;;;;;;;;12.00;8.00;;;;;9.08;77.56;99299.59;5098648;27;45489;-66
2022/11/23 06:21:44;;;;;;;;;9.33;7.33;;;;;9.11;77.45;99309.84;5098619;27;45276;-68
2022/11/23 06:24:10;;;;;;;;;13.00;11.00;;;;;9.11;77.37;99289.47;5098275;27;45634;-66
2022/11/23 06:26:35;;;;;;;;;11.33;11.00;;;;;8.24;77.19;99163.94;5098165;27;52012;-67
2022/11/23 06:29:00;;;;;;;;;14.00;11.67;;;;;9.27;76.87;99288.59;5101930;27;45380;-67
2022/11/23 06:31:26;;;;;;;;;10.00;10.00;;;;;9.22;76.93;99275.03;5097825;27;45545;-68
2022/11/23 06:33:51;;;;;;;;;8.00;7.67;;;;;9.41;76.48;99290.53;5097494;27;45370;-67
2022/11/23 06:36:17;;;;;;;;;12.00;10.33;;;;;9.48;76.09;99290.66;5079419;27;45488;-67
2022/11/23 06:38:42;;;;;;;;;7.67;6.67;;;;;9.50;76.02;99282.53;5098377;27;45182;-65
2022/11/23 06:41:08;;;;;;;;;7.00;5.33;;;;;9.00;75.56;99201.50;5098715;27;45402;-68
2022/11/23 06:43:33;;;;;;;;;10.00;7.00;;;;;9.48;76.13;99274.75;5097413;27;46722;-68
2022/11/23 06:46:03;;;;;;;;;5.00;5.00;;;;;9.46;75.88;99271.44;5098352;27;45315;-66
2022/11/23 06:48:28;;;;;;;;;7.67;6.00;;;;;9.08;75.67;99196.19;5096153;27;46812;-67
2022/11/23 06:50:53;;;;;;;;;13.33;6.67;;;;;9.48;75.88;99258.00;5101096;27;46843;-68
2022/11/23 06:53:19;;;;;;;;;5.00;5.00;;;;;8.83;75.46;99137.16;5099877;27;46842;-68
2022/11/23 06:55:44;;;;;;;;;11.33;9.00;;;;;9.48;75.78;99240.25;5118740;27;45328;-67
2022/11/23 06:58:09;;;;;;;;;6.00;6.00;;;;;9.48;74.97;99242.09;5079973;27;46301;-68
2022/11/23 07:00:35;;;;;;;;;9.33;7.00;;;;;9.53;75.60;99239.72;5090997;27;45603;-70
2022/11/23 07:03:00;;;;;;;;;6.67;5.00;;;;;9.59;74.78;99261.06;5106382;27;45533;-69
2022/11/23 07:05:26;;;;;;;;;7.67;7.00;;;;;9.57;74.96;99239.19;5097374;27;45257;-68
2022/11/23 07:07:52;;;;;;;;;5.67;5.67;;;;;8.64;75.08;99080.09;5105481;27;45450;-68
2022/11/23 07:10:18;;;;;;;;;4.67;4.67;;;;;9.58;75.10;99242.69;5118876;27;45312;-67
2022/11/23 07:12:44;;;;;;;;;5.67;5.67;;;;;9.20;75.23;99228.44;5103561;27;46206;-68
2022/11/23 07:15:10;;;;;;;;;8.00;6.33;;;;;9.41;75.18;99242.78;5098319;27;45671;-69
2022/11/23 07:17:42;;;;;;;;;7.67;6.67;;;;;9.19;75.02;99185.19;5097856;27;45263;-68
2022/11/23 07:20:10;;;;;;;;;7.33;7.00;;;;;9.11;74.36;99171.97;5080031;27;45693;-76
2022/11/23 07:22:36;;;;;;;;;7.67;7.67;;;;;9.48;73.98;99231.47;5099528;27;45995;-68
2022/11/23 07:25:02;;;;;;;;;8.00;6.33;;;;;9.52;74.21;99246.03;5079184;27;45402;-69
2022/11/23 07:27:27;;;;;;;;;7.00;7.00;;;;;9.57;74.26;99270.22;5097786;27;45338;-68
2022/11/23 07:29:53;;;;;;;;;103.50;83.75;;;;;8.08;73.94;99010.44;5096972;27;52205;-68
2022/11/23 07:32:18;;;;;;;;;13.33;7.67;;;;;8.63;73.39;99099.66;5097488;27;46471;-69
2022/11/23 07:34:43;;;;;;;;;10.67;7.33;;;;;9.08;72.88;99175.81;5097120;27;45429;-67
2022/11/23 07:37:09;;;;;;;;;5.67;4.67;;;;;9.41;73.00;99223.38;5079261;27;45311;-69
2022/11/23 07:39:34;;;;;;;;;8.00;5.00;;;;;9.45;72.60;99236.13;5097393;27;45394;-68
2022/11/23 07:41:59;;;;;;;;;4.33;4.33;;;;;9.68;72.40;99269.84;5097278;27;52753;-68
2022/11/23 07:44:24;;;;;;;;;5.67;4.00;;;;;9.55;72.66;99243.03;5097164;27;45387;-67
2022/11/23 07:46:53;;;;;;;;;1.67;0.67;;;;;9.69;72.27;99267.00;5101037;27;45446;-69
2022/11/23 07:49:18;;;;;;;;;7.67;4.00;;;;;9.65;72.76;99276.31;5100985;27;45384;-68
2022/11/23 07:51:43;;;;;;;;;3.67;3.67;;;;;9.60;72.59;99262.72;5100631;27;46312;-69
2022/11/23 07:54:09;;;;;;;;;4.00;3.00;;;;;9.55;73.47;99243.03;5101019;27;45546;-68
2022/11/23 07:56:34;;;;;;;;;6.33;3.67;;;;;9.22;73.93;99184.88;5100938;27;45731;-68
2022/11/23 07:59:00;;;;;;;;;5.33;5.00;;;;;9.34;73.63;99215.28;5085045;27;45170;-71
2022/11/23 08:01:25;;;;;;;;;4.67;4.67;;;;;9.56;73.87;99247.34;5106506;27;45417;-68
2022/11/23 08:03:54;;;;;;;;;2.00;2.00;;;;;7.23;73.80;98866.53;5092893;27;45433;-69
2022/11/23 08:06:19;;;;;;;;;6.67;4.00;;;;;9.60;73.85;99253.94;5082126;27;45336;-70
2022/11/23 08:08:44;;;;;;;;;3.00;3.00;;;;;9.61;73.81;99248.50;5111896;27;45438;-67
2022/11/23 08:11:13;;;;;;;;;4.67;4.67;;;;;9.44;73.47;99226.53;5100005;27;45540;-68
2022/11/23 08:13:39;;;;;;;;;5.67;3.67;;;;;9.16;73.62;99177.59;5113548;27;45472;-68
2022/11/23 08:16:08;;;;;;;;;6.67;4.00;;;;;9.51;73.88;99231.94;5106116;27;46021;-69
2022/11/23 08:18:33;;;;;;;;;2.67;2.67;;;;;9.56;74.47;99248.16;5082509;27;45312;-69
2022/11/23 08:20:59;;;;;;;;;6.33;4.67;;;;;9.59;74.42;99254.94;5081627;27;47929;-68
2022/11/23 08:23:25;;;;;;;;;5.00;4.00;;;;;8.31;74.52;99042.28;5082983;27;45451;-69
2022/11/23 08:25:50;;;;;;;;;6.00;5.00;;;;;9.55;74.90;99256.28;5081507;27;45478;-70
2022/11/23 08:28:16;;;;;;;;;4.33;4.33;;;;;9.59;74.49;99231.06;5081866;27;45295;-70
2022/11/23 08:30:41;;;;;;;;;4.00;4.00;;;;;9.67;74.44;99221.25;5081827;27;47595;-71
2022/11/23 08:33:08;;;;;;;;;3.00;3.00;;;;;9.11;73.93;99124.25;5101138;27;45552;-69
2022/11/23 08:35:35;;;;;;;;;6.33;6.00;;;;;9.68;74.02;99206.97;5116894;27;45169;-70
2022/11/23 08:38:01;;;;;;;;;5.00;4.00;;;;;9.67;73.63;99175.31;5115605;27;45399;-70
2022/11/23 08:40:26;;;;;;;;;3.00;2.67;;;;;9.96;72.77;99219.72;5098793;27;48653;-68
2022/11/23 08:42:51;;;;;;;;;4.00;4.00;;;;;9.94;72.86;99192.53;5120426;27;45540;-70
2022/11/23 08:45:17;;;;;;;;;5.00;4.00;;;;;9.08;72.33;99029.19;5099844;27;45327;-71
2022/11/23 08:47:42;;;;;;;;;5.00;4.00;;;;;9.75;71.87;99111.53;5100144;27;45355;-69
2022/11/23 08:50:08;;;;;;;;;6.33;5.00;;;;;9.80;71.83;99118.97;5082064;27;47556;-68
2022/11/23 08:52:34;;;;;;;;;6.00;5.33;;;;;9.22;71.32;99030.25;5099884;27;45550;-69
2022/11/23 08:55:00;;;;;;;;;4.67;4.67;;;;;10.21;72.06;99165.47;5099978;27;45410;-68
2022/11/23 08:57:26;;;;;;;;;5.33;4.00;;;;;10.26;71.69;99172.88;5080817;27;45400;-70
2022/11/23 08:59:51;;;;;;;;;3.00;3.00;;;;;9.48;72.07;99043.13;5081506;27;47337;-70
2022/11/23 09:02:16;;;;;;;;;4.00;4.00;;;;;10.09;71.67;99155.41;5099922;27;59013;-70
2022/11/23 09:04:42;;;;;;;;;6.33;5.00;;;;;9.19;71.45;98996.94;5100770;27;45397;-70
2022/11/23 09:07:08;;;;;;;;;3.33;3.33;;;;;10.30;71.33;99175.00;5101164;27;45484;-70
2022/11/23 09:09:33;;;;;;;;;3.67;3.67;;;;;10.06;72.07;99152.09;5100196;27;45727;-72
2022/11/23 09:11:59;;;;;;;;;4.00;4.00;;;;;9.53;72.44;99051.38;5078770;28;45758;-68
2022/11/23 09:14:26;;;;;;;;;4.00;4.00;;;;;9.74;72.01;99075.41;5079602;28;45439;-69
2022/11/23 09:16:52;;;;;;;;;6.33;5.00;;;;;9.15;72.63;98974.44;5079717;27;45595;-71
2022/11/23 09:19:18;;;;;;;;;3.00;2.00;;;;;9.99;72.52;99118.47;5079457;27;47183;-70
2022/11/23 09:21:43;;;;;;;;;5.00;4.00;;;;;10.13;73.19;99132.78;5079319;27;45477;-70
2022/11/23 09:24:10;;;;;;;;;2.33;2.33;;;;;9.09;72.87;98968.03;5079145;27;45268;-70
2022/11/23 09:26:36;;;;;;;;;5.67;4.00;;;;;9.67;73.17;99047.94;5077636;28;45455;-71
2022/11/23 09:29:03;;;;;;;;;5.67;3.00;;;;;10.01;73.62;99119.97;5079044;27;45776;-68
2022/11/23 09:31:28;;;;;;;;;3.33;3.33;;;;;9.90;73.66;99088.53;5079168;27;45951;-69
2022/11/23 09:33:54;;;;;;;;;5.33;3.67;;;;;10.30;73.24;99174.16;5078701;28;45789;-69
2022/11/23 09:36:21;;;;;;;;;4.00;4.00;;;;;10.22;73.81;99150.34;5081067;27;45475;-68
2022/11/23 09:38:48;;;;;;;;;3.33;3.33;;;;;9.47;74.10;99014.97;5079241;28;45472;-69
2022/11/23 09:41:31;;;;;;;;;3.67;3.00;;;;;10.28;74.25;99141.66;5081807;27;45248;-68
2022/11/23 09:44:18;;;;;;;;;4.00;4.00;;;;;10.26;74.64;99138.34;5078999;27;45305;-70
2022/11/23 09:46:56;;;;;;;;;3.33;2.00;;;;;10.27;75.03;99121.41;5078945;28;45482;-69
2022/11/23 09:49:51;;;;;;;;;4.00;2.00;;;;;10.04;75.07;99102.84;5077749;28;48261;-69
2022/11/23 09:52:20;;;;;;;;;2.67;2.67;;;;;9.68;74.73;99023.06;5062512;27;45572;-69
2022/11/23 09:54:51;;;;;;;;;4.00;4.00;;;;;8.74;74.94;98889.94;5077176;28;46343;-69
2022/11/23 09:57:25;;;;;;;;;4.67;3.33;;;;;10.19;74.92;99114.28;5078775;27;45479;-69
2022/11/23 09:59:58;;;;;;;;;5.00;4.00;;;;;10.30;75.15;99121.03;5078413;27;45780;-69
2022/11/23 10:02:27;;;;;;;;;2.00;2.00;;;;;10.30;75.48;99111.25;5078415;27;45319;-71
2022/11/23 10:04:55;;;;;;;;;3.67;2.00;;;;;9.34;75.10;98959.84;5079159;27;45356;-70
2022/11/23 10:07:24;;;;;;;;;4.67;4.00;;;;;10.28;76.01;99117.75;5078903;27;45307;-69
2022/11/23 10:10:26;;;;;;;;;5.00;5.00;;;;;9.83;75.95;99074.34;5077551;28;47348;-70
2022/11/23 10:13:25;;;;;;;;;5.33;4.33;;;;;10.20;76.20;99117.78;5073662;28;45485;-69
2022/11/23 10:16:03;;;;;;;;;9.67;9.67;;;;;10.21;76.49;99114.13;5051498;27;45590;-69
2022/11/23 10:18:47;;;;;;;;;11.67;9.33;;;;;10.21;77.07;99108.81;5078799;27;45329;-70
2022/11/23 10:21:24;;;;;;;;;6.33;5.33;;;;;10.22;76.89;99124.63;5078127;28;45934;-69
2022/11/23 10:24:18;;;;;;;;;15.33;12.67;;;;;10.15;77.54;99144.06;5078142;28;45633;-70
2022/11/23 10:26:45;;;;;;;;;13.67;5.67;;;;;10.06;78.24;99160.06;5076635;28;45257;-70
2022/11/23 10:29:15;;;;;;;;;74.00;56.75;;;;;10.05;78.31;99139.84;5078548;27;45186;-71
2022/11/23 10:31:46;;;;;;;;;56.75;45.50;;;;;9.56;78.49;99069.59;4991483;27;45727;-70
2022/11/23 10:34:34;;;;;;;;;19.00;17.33;;;;;10.02;78.96;99148.16;4997773;28;45273;-70
2022/11/23 10:37:00;;;;;;;;;12.33;11.33;;;;;9.98;78.83;99151.34;4998621;28;45547;-70
2022/11/23 10:39:27;;;;;;;;;6.33;5.33;;;;;9.15;79.74;99019.50;4998788;28;45380;-70
2022/11/23 10:42:02;;;;;;;;;3.67;3.00;;;;;9.68;79.74;99114.09;4998794;28;46262;-69
2022/11/23 10:44:36;;;;;;;;;5.33;4.00;;;;;9.90;79.74;99157.53;4997975;28;45497;-71
2022/11/23 10:47:03;;;;;;;;;3.00;3.00;;;;;9.51;79.71;99106.44;5013991;28;45364;-70
2022/11/23 10:49:31;;;;;;;;;3.67;2.67;;;;;8.79;79.69;98976.84;4999027;28;45244;-71
2022/11/23 10:52:07;;;;;;;;;3.00;3.00;;;;;10.01;79.63;99165.09;4998438;28;46298;-70
2022/11/23 10:54:46;;;;;;;;;3.00;3.00;;;;;10.07;79.37;99177.66;5012621;28;45540;-69
2022/11/23 10:57:32;;;;;;;;;8.33;4.00;;;;;9.85;79.59;99143.16;4997839;28;45586;-69
2022/11/23 11:00:12;;;;;;;;;3.00;3.00;;;;;10.17;79.18;99171.25;4998327;28;45375;-70
2022/11/23 11:02:45;;;;;;;;;3.00;3.00;;;;;10.17;79.16;99155.31;4998903;28;46243;-70
2022/11/23 11:05:26;;;;;;;;;9.00;5.00;;;;;10.33;78.77;99171.97;4997366;28;45431;-70
2022/11/23 11:07:53;;;;;;;;;5.00;3.67;;;;;9.13;78.32;98979.09;5011178;28;45416;-70
2022/11/23 11:10:55;;;;;;;;;7.00;4.00;;;;;10.51;78.54;99176.13;4994435;28;45502;-69
2022/11/23 11:13:29;;;;;;;;;3.33;3.33;;;;;10.47;77.86;99148.25;4970028;28;45559;-71
2022/11/23 11:16:04;;;;;;;;;4.00;2.67;;;;;10.64;77.89;99174.47;4976217;28;45505;-70
2022/11/23 11:18:35;;;;;;;;;3.00;3.00;;;;;10.56;77.76;99158.59;4967814;28;45733;-71
2022/11/23 11:21:16;;;;;;;;;3.67;3.67;;;;;10.72;78.01;99183.38;4977558;28;45642;-72
2022/11/23 11:23:49;;;;;;;;;4.00;3.00;;;;;10.68;78.18;99166.97;4992814;28;45583;-69
2022/11/23 11:26:22;;;;;;;;;5.67;4.67;;;;;10.83;78.48;99190.91;4978004;28;45424;-71
2022/11/23 11:28:52;;;;;;;;;3.00;3.00;;;;;10.87;78.44;99181.53;4991540;28;45333;-69
2022/11/23 11:31:29;;;;;;;;;4.33;4.33;;;;;10.89;78.63;99190.97;4976819;28;45435;-71
2022/11/23 11:34:24;;;;;;;;;5.33;4.00;;;;;10.73;78.18;99155.78;4972928;28;46501;-70
2022/11/23 11:37:12;;;;;;;;;4.00;4.00;;;;;10.94;77.81;99187.75;4965295;28;45325;-72
2022/11/23 11:39:48;;;;;;;;;6.00;6.00;;;;;11.22;77.12;99210.03;4978988;28;45390;-72
2022/11/23 11:42:21;;;;;;;;;5.00;5.00;;;;;11.21;77.37;99200.41;4976480;28;45392;-71